sensor_id;sensor_type;location;lat;lon;timestamp;temperature;humidity
8231;DHT22;4156;50.908;6.974;2024-01-30T00:01:37;10.00;99.90
8231;DHT22;4156;50.908;6.974;2024-01-30T00:04:03;9.90;99.90
8231;DHT22;4156;50.908;6.974;2024-01-30T00:06:28;9.90;99.90
8231;DHT22;4156;50.908;6.974;2024-01-30T00:08:54;9.70;99.90
8231;DHT22;4156;50.908;6.974;2024-01-30T00:11:19;9.80;99.90
8231;DHT22;4156;50.908;6.974;2024-01-30T00:13:45;9.80;99.90
8231;DHT22;4156;50.908;6.974;2024-01-30T00:16:23;9.80;99.90
8231;DHT22;4156;50.908;6.974;2024-01-30T00:18:53;9.90;99.90
8231;DHT22;4156;50.908;6.974;2024-01-30T00:21:19;9.90;99.90
8231;DHT22;4156;50.908;6.974;2024-01-30T00:23:44;9.80;99.90
8231;DHT22;4156;50.908;6.974;2024-01-30T00:26:10;9.80;99.90
8231;DHT22;4156;50.908;6.974;2024-01-30T00:28:37;9.80;99.90
8231;DHT22;4156;50.908;6.974;2024-01-30T00:31:02;9.80;99.90
8231;DHT22;4156;50.908;6.974;2024-01-30T00:33:28;9.90;99.90
8231;DHT22;4156;50.908;6.974;2024-01-30T00:35:54;9.80;99.90
8231;DHT22;4156;50.908;6.974;2024-01-30T00:38:19;9.80;99.90
8231;DHT22;4156;50.908;6.974;2024-01-30T00:40:45;9.80;99.90
8231;DHT22;4156;50.908;6.974;2024-01-30T00:43:10;9.80;99.90
8231;DHT22;4156;50.908;6.974;2024-01-30T00:45:36;9.80;99.90
8231;DHT22;4156;50.908;6.974;2024-01-30T00:48:01;9.80;99.90
8231;DHT22;4156;50.908;6.974;2024-01-30T00:50:27;9.70;99.90
8231;DHT22;4156;50.908;6.974;2024-01-30T00:52:52;9.20;99.90
8231;DHT22;4156;50.908;6.974;2024-01-30T00:55:18;9.80;99.90
8231;DHT22;4156;50.908;6.974;2024-01-30T00:57:43;9.80;99.90
8231;DHT22;4156;50.908;6.974;2024-01-30T01:00:09;9.70;99.90
8231;DHT22;4156;50.908;6.974;2024-01-30T01:02:35;9.80;99.90
8231;DHT22;4156;50.908;6.974;2024-01-30T01:05:01;9.70;99.90
8231;DHT22;4156;50.908;6.974;2024-01-30T01:07:27;9.80;99.90
8231;DHT22;4156;50.908;6.974;2024-01-30T01:09:52;9.70;99.90
8231;DHT22;4156;50.908;6.974;2024-01-30T01:12:18;9.80;99.90
8231;DHT22;4156;50.908;6.974;2024-01-30T01:14:44;9.70;99.90
8231;DHT22;4156;50.908;6.974;2024-01-30T01:17:12;9.70;99.90
8231;DHT22;4156;50.908;6.974;2024-01-30T01:19:38;9.70;99.90
8231;DHT22;4156;50.908;6.974;2024-01-30T01:22:03;9.60;99.90
8231;DHT22;4156;50.908;6.974;2024-01-30T01:24:32;9.70;99.90
8231;DHT22;4156;50.908;6.974;2024-01-30T01:27:00;9.70;99.90
8231;DHT22;4156;50.908;6.974;2024-01-30T01:29:26;9.70;99.90
8231;DHT22;4156;50.908;6.974;2024-01-30T01:31:57;9.60;99.90
8231;DHT22;4156;50.908;6.974;2024-01-30T01:34:23;9.70;99.90
8231;DHT22;4156;50.908;6.974;2024-01-30T01:36:51;9.60;99.90
8231;DHT22;4156;50.908;6.974;2024-01-30T01:39:17;9.70;99.90
8231;DHT22;4156;50.908;6.974;2024-01-30T01:41:42;9.60;99.90
8231;DHT22;4156;50.908;6.974;2024-01-30T01:44:08;9.60;99.90
8231;DHT22;4156;50.908;6.974;2024-01-30T01:46:34;9.60;99.90
8231;DHT22;4156;50.908;6.974;2024-01-30T01:49:02;9.70;99.90
8231;DHT22;4156;50.908;6.974;2024-01-30T01:51:29;9.70;99.90
8231;DHT22;4156;50.908;6.974;2024-01-30T01:53:57;9.70;99.90
8231;DHT22;4156;50.908;6.974;2024-01-30T01:56:25;9.60;99.90
8231;DHT22;4156;50.908;6.974;2024-01-30T01:58:54;9.60;99.90
8231;DHT22;4156;50.908;6.974;2024-01-30T02:01:21;9.70;99.90
8231;DHT22;4156;50.908;6.974;2024-01-30T02:03:48;9.60;99.90
8231;DHT22;4156;50.908;6.974;2024-01-30T02:06:14;9.60;99.90
8231;DHT22;4156;50.908;6.974;2024-01-30T02:08:41;9.60;99.90
8231;DHT22;4156;50.908;6.974;2024-01-30T02:11:07;9.40;99.90
8231;DHT22;4156;50.908;6.974;2024-01-30T02:13:32;9.60;99.90
8231;DHT22;4156;50.908;6.974;2024-01-30T02:15:58;9.60;99.90
8231;DHT22;4156;50.908;6.974;2024-01-30T02:18:23;9.70;99.90
8231;DHT22;4156;50.908;6.974;2024-01-30T02:20:51;9.60;99.90
8231;DHT22;4156;50.908;6.974;2024-01-30T02:23:19;9.60;99.90
8231;DHT22;4156;50.908;6.974;2024-01-30T02:25:45;9.50;99.90
8231;DHT22;4156;50.908;6.974;2024-01-30T02:28:14;9.60;99.90
8231;DHT22;4156;50.908;6.974;2024-01-30T02:30:40;9.60;99.90
8231;DHT22;4156;50.908;6.974;2024-01-30T02:33:05;9.60;99.90
8231;DHT22;4156;50.908;6.974;2024-01-30T02:35:31;9.60;99.90
8231;DHT22;4156;50.908;6.974;2024-01-30T02:37:57;9.60;99.90
8231;DHT22;4156;50.908;6.974;2024-01-30T02:40:22;9.60;99.90
8231;DHT22;4156;50.908;6.974;2024-01-30T02:42:48;9.50;99.90
8231;DHT22;4156;50.908;6.974;2024-01-30T02:45:13;9.60;99.90
8231;DHT22;4156;50.908;6.974;2024-01-30T02:47:39;9.60;99.90
8231;DHT22;4156;50.908;6.974;2024-01-30T02:50:05;9.60;99.90
8231;DHT22;4156;50.908;6.974;2024-01-30T02:52:31;9.60;99.90
8231;DHT22;4156;50.908;6.974;2024-01-30T02:54:57;9.50;99.90
8231;DHT22;4156;50.908;6.974;2024-01-30T02:57:25;9.60;99.90
8231;DHT22;4156;50.908;6.974;2024-01-30T02:59:51;9.50;99.90
8231;DHT22;4156;50.908;6.974;2024-01-30T03:02:17;9.50;99.90
8231;DHT22;4156;50.908;6.974;2024-01-30T03:04:42;9.50;99.90
8231;DHT22;4156;50.908;6.974;2024-01-30T03:07:08;9.50;99.90
8231;DHT22;4156;50.908;6.974;2024-01-30T03:09:34;9.50;99.90
8231;DHT22;4156;50.908;6.974;2024-01-30T03:11:59;9.60;99.90
8231;DHT22;4156;50.908;6.974;2024-01-30T03:14:26;9.30;99.90
8231;DHT22;4156;50.908;6.974;2024-01-30T03:16:51;9.70;99.90
8231;DHT22;4156;50.908;6.974;2024-01-30T03:19:17;9.30;99.90
8231;DHT22;4156;50.908;6.974;2024-01-30T03:21:42;9.50;99.90
8231;DHT22;4156;50.908;6.974;2024-01-30T03:24:08;9.50;99.90
8231;DHT22;4156;50.908;6.974;2024-01-30T03:26:34;9.60;99.90
8231;DHT22;4156;50.908;6.974;2024-01-30T03:29:00;9.40;99.90
8231;DHT22;4156;50.908;6.974;2024-01-30T03:31:25;9.40;99.90
8231;DHT22;4156;50.908;6.974;2024-01-30T03:33:51;9.40;99.90
8231;DHT22;4156;50.908;6.974;2024-01-30T03:36:16;9.40;99.90
8231;DHT22;4156;50.908;6.974;2024-01-30T03:38:42;9.90;99.90
8231;DHT22;4156;50.908;6.974;2024-01-30T03:41:08;9.50;99.90
8231;DHT22;4156;50.908;6.974;2024-01-30T03:43:35;9.50;99.90
8231;DHT22;4156;50.908;6.974;2024-01-30T03:46:01;9.40;99.90
8231;DHT22;4156;50.908;6.974;2024-01-30T03:48:27;9.60;99.90
8231;DHT22;4156;50.908;6.974;2024-01-30T03:50:52;9.30;99.90
8231;DHT22;4156;50.908;6.974;2024-01-30T03:53:18;9.40;99.90
8231;DHT22;4156;50.908;6.974;2024-01-30T03:55:43;9.40;99.90
8231;DHT22;4156;50.908;6.974;2024-01-30T03:58:09;9.30;99.90
8231;DHT22;4156;50.908;6.974;2024-01-30T04:00:34;9.10;99.90
8231;DHT22;4156;50.908;6.974;2024-01-30T04:03:00;9.20;99.90
8231;DHT22;4156;50.908;6.974;2024-01-30T04:05:26;9.20;99.90
8231;DHT22;4156;50.908;6.974;2024-01-30T04:07:51;9.30;99.90
8231;DHT22;4156;50.908;6.974;2024-01-30T04:10:17;9.30;99.90
8231;DHT22;4156;50.908;6.974;2024-01-30T04:12:42;9.20;99.90
8231;DHT22;4156;50.908;6.974;2024-01-30T04:15:08;9.20;99.90
8231;DHT22;4156;50.908;6.974;2024-01-30T04:17:34;9.20;99.90
8231;DHT22;4156;50.908;6.974;2024-01-30T04:19:59;9.20;99.90
8231;DHT22;4156;50.908;6.974;2024-01-30T04:22:25;9.20;99.90
8231;DHT22;4156;50.908;6.974;2024-01-30T04:24:50;9.20;99.90
8231;DHT22;4156;50.908;6.974;2024-01-30T04:27:16;9.20;99.90
8231;DHT22;4156;50.908;6.974;2024-01-30T04:29:41;9.20;99.90
8231;DHT22;4156;50.908;6.974;2024-01-30T04:32:07;9.20;99.90
8231;DHT22;4156;50.908;6.974;2024-01-30T04:34:32;9.20;99.90
8231;DHT22;4156;50.908;6.974;2024-01-30T04:36:58;9.20;99.90
8231;DHT22;4156;50.908;6.974;2024-01-30T04:39:24;9.20;99.90
8231;DHT22;4156;50.908;6.974;2024-01-30T04:41:55;9.20;99.90
8231;DHT22;4156;50.908;6.974;2024-01-30T04:44:23;8.40;99.90
8231;DHT22;4156;50.908;6.974;2024-01-30T04:46:48;9.00;99.90
8231;DHT22;4156;50.908;6.974;2024-01-30T04:49:14;9.10;99.90
8231;DHT22;4156;50.908;6.974;2024-01-30T04:51:39;9.00;99.90
8231;DHT22;4156;50.908;6.974;2024-01-30T04:54:05;9.10;99.90
8231;DHT22;4156;50.908;6.974;2024-01-30T04:56:30;9.10;99.90
8231;DHT22;4156;50.908;6.974;2024-01-30T04:58:56;9.10;99.90
8231;DHT22;4156;50.908;6.974;2024-01-30T05:01:22;9.10;99.90
8231;DHT22;4156;50.908;6.974;2024-01-30T05:03:47;8.80;99.90
8231;DHT22;4156;50.908;6.974;2024-01-30T05:06:13;9.00;99.90
8231;DHT22;4156;50.908;6.974;2024-01-30T05:08:48;9.00;99.90
8231;DHT22;4156;50.908;6.974;2024-01-30T05:11:14;9.50;99.90
8231;DHT22;4156;50.908;6.974;2024-01-30T05:13:39;9.10;99.90
8231;DHT22;4156;50.908;6.974;2024-01-30T05:16:05;9.00;99.90
8231;DHT22;4156;50.908;6.974;2024-01-30T05:18:31;9.10;99.90
8231;DHT22;4156;50.908;6.974;2024-01-30T05:20:57;9.20;99.90
8231;DHT22;4156;50.908;6.974;2024-01-30T05:23:22;9.00;99.90
8231;DHT22;4156;50.908;6.974;2024-01-30T05:25:48;9.00;99.90
8231;DHT22;4156;50.908;6.974;2024-01-30T05:28:13;9.00;99.90
8231;DHT22;4156;50.908;6.974;2024-01-30T05:30:39;8.90;99.90
8231;DHT22;4156;50.908;6.974;2024-01-30T05:33:04;8.80;99.90
8231;DHT22;4156;50.908;6.974;2024-01-30T05:35:30;8.70;99.90
8231;DHT22;4156;50.908;6.974;2024-01-30T05:37:55;9.00;99.90
8231;DHT22;4156;50.908;6.974;2024-01-30T05:40:21;9.00;99.90
8231;DHT22;4156;50.908;6.974;2024-01-30T05:42:47;8.90;99.90
8231;DHT22;4156;50.908;6.974;2024-01-30T05:45:13;9.00;99.90
8231;DHT22;4156;50.908;6.974;2024-01-30T05:47:39;8.90;99.90
8231;DHT22;4156;50.908;6.974;2024-01-30T05:50:05;9.00;99.90
8231;DHT22;4156;50.908;6.974;2024-01-30T05:52:30;8.90;99.90
8231;DHT22;4156;50.908;6.974;2024-01-30T05:54:56;8.80;99.90
8231;DHT22;4156;50.908;6.974;2024-01-30T05:57:22;8.80;99.90
8231;DHT22;4156;50.908;6.974;2024-01-30T05:59:47;8.80;99.90
8231;DHT22;4156;50.908;6.974;2024-01-30T06:02:13;8.70;99.90
8231;DHT22;4156;50.908;6.974;2024-01-30T06:04:39;8.80;99.90
8231;DHT22;4156;50.908;6.974;2024-01-30T06:07:04;8.80;99.90
8231;DHT22;4156;50.908;6.974;2024-01-30T06:09:31;8.90;99.90
8231;DHT22;4156;50.908;6.974;2024-01-30T06:11:57;8.80;99.90
8231;DHT22;4156;50.908;6.974;2024-01-30T06:14:23;8.80;99.90
8231;DHT22;4156;50.908;6.974;2024-01-30T06:16:49;8.70;99.90
8231;DHT22;4156;50.908;6.974;2024-01-30T06:19:14;8.80;99.90
8231;DHT22;4156;50.908;6.974;2024-01-30T06:21:40;8.80;99.90
8231;DHT22;4156;50.908;6.974;2024-01-30T06:24:05;8.80;99.90
8231;DHT22;4156;50.908;6.974;2024-01-30T06:26:31;8.90;99.90
8231;DHT22;4156;50.908;6.974;2024-01-30T06:28:56;8.80;99.90
8231;DHT22;4156;50.908;6.974;2024-01-30T06:31:22;8.80;99.90
8231;DHT22;4156;50.908;6.974;2024-01-30T06:33:48;8.80;99.90
8231;DHT22;4156;50.908;6.974;2024-01-30T06:36:13;8.80;99.90
8231;DHT22;4156;50.908;6.974;2024-01-30T06:38:39;8.80;99.90
8231;DHT22;4156;50.908;6.974;2024-01-30T06:41:04;8.80;99.90
8231;DHT22;4156;50.908;6.974;2024-01-30T06:43:30;8.80;99.90
8231;DHT22;4156;50.908;6.974;2024-01-30T06:45:55;8.80;99.90
8231;DHT22;4156;50.908;6.974;2024-01-30T06:48:21;8.70;99.90
8231;DHT22;4156;50.908;6.974;2024-01-30T06:50:46;8.80;99.90
8231;DHT22;4156;50.908;6.974;2024-01-30T06:53:15;8.70;99.90
8231;DHT22;4156;50.908;6.974;2024-01-30T06:55:41;8.80;99.90
8231;DHT22;4156;50.908;6.974;2024-01-30T06:58:07;8.50;99.90
8231;DHT22;4156;50.908;6.974;2024-01-30T07:00:32;8.70;99.90
8231;DHT22;4156;50.908;6.974;2024-01-30T07:02:58;8.80;99.90
8231;DHT22;4156;50.908;6.974;2024-01-30T07:05:23;8.70;99.90
8231;DHT22;4156;50.908;6.974;2024-01-30T07:07:49;8.80;99.90
8231;DHT22;4156;50.908;6.974;2024-01-30T07:10:14;8.80;99.90
8231;DHT22;4156;50.908;6.974;2024-01-30T07:12:40;8.70;99.90
8231;DHT22;4156;50.908;6.974;2024-01-30T07:15:06;9.00;99.90
8231;DHT22;4156;50.908;6.974;2024-01-30T07:17:34;8.80;99.90
8231;DHT22;4156;50.908;6.974;2024-01-30T07:20:00;8.80;99.90
8231;DHT22;4156;50.908;6.974;2024-01-30T07:22:26;8.80;99.90
8231;DHT22;4156;50.908;6.974;2024-01-30T07:24:52;8.80;99.90
8231;DHT22;4156;50.908;6.974;2024-01-30T07:27:17;8.80;99.90
8231;DHT22;4156;50.908;6.974;2024-01-30T07:29:43;8.80;99.90
8231;DHT22;4156;50.908;6.974;2024-01-30T07:32:09;8.70;99.90
8231;DHT22;4156;50.908;6.974;2024-01-30T07:34:34;8.80;99.90
8231;DHT22;4156;50.908;6.974;2024-01-30T07:37:01;8.70;99.90
8231;DHT22;4156;50.908;6.974;2024-01-30T07:39:27;8.70;99.90
8231;DHT22;4156;50.908;6.974;2024-01-30T07:41:53;8.80;99.90
8231;DHT22;4156;50.908;6.974;2024-01-30T07:44:18;8.80;99.90
8231;DHT22;4156;50.908;6.974;2024-01-30T07:46:44;8.80;99.90
8231;DHT22;4156;50.908;6.974;2024-01-30T07:49:09;8.80;99.90
8231;DHT22;4156;50.908;6.974;2024-01-30T07:51:35;8.80;99.90
8231;DHT22;4156;50.908;6.974;2024-01-30T07:54:01;8.80;99.90
8231;DHT22;4156;50.908;6.974;2024-01-30T07:56:26;8.80;99.90
8231;DHT22;4156;50.908;6.974;2024-01-30T07:58:52;8.90;99.90
8231;DHT22;4156;50.908;6.974;2024-01-30T08:01:18;8.90;99.90
8231;DHT22;4156;50.908;6.974;2024-01-30T08:03:44;8.90;99.90
8231;DHT22;4156;50.908;6.974;2024-01-30T08:06:09;8.90;99.90
8231;DHT22;4156;50.908;6.974;2024-01-30T08:08:35;8.90;99.90
8231;DHT22;4156;50.908;6.974;2024-01-30T08:11:00;8.80;99.90
8231;DHT22;4156;50.908;6.974;2024-01-30T08:13:27;8.80;99.90
8231;DHT22;4156;50.908;6.974;2024-01-30T08:15:53;8.80;99.90
8231;DHT22;4156;50.908;6.974;2024-01-30T08:18:18;8.90;99.90
8231;DHT22;4156;50.908;6.974;2024-01-30T08:20:44;8.90;99.90
8231;DHT22;4156;50.908;6.974;2024-01-30T08:23:09;8.90;99.90
8231;DHT22;4156;50.908;6.974;2024-01-30T08:25:35;8.90;99.90
8231;DHT22;4156;50.908;6.974;2024-01-30T08:28:02;8.90;99.90
8231;DHT22;4156;50.908;6.974;2024-01-30T08:30:28;8.90;99.90
8231;DHT22;4156;50.908;6.974;2024-01-30T08:32:53;8.90;99.90
8231;DHT22;4156;50.908;6.974;2024-01-30T08:35:19;8.90;99.90
8231;DHT22;4156;50.908;6.974;2024-01-30T08:37:45;8.90;99.90
8231;DHT22;4156;50.908;6.974;2024-01-30T08:40:10;8.90;99.90
8231;DHT22;4156;50.908;6.974;2024-01-30T08:42:36;8.90;99.90
8231;DHT22;4156;50.908;6.974;2024-01-30T08:45:01;8.90;99.90
8231;DHT22;4156;50.908;6.974;2024-01-30T08:47:27;8.90;99.90
8231;DHT22;4156;50.908;6.974;2024-01-30T08:49:53;8.90;99.90
8231;DHT22;4156;50.908;6.974;2024-01-30T08:52:18;8.90;99.90
8231;DHT22;4156;50.908;6.974;2024-01-30T08:54:44;9.00;99.90
8231;DHT22;4156;50.908;6.974;2024-01-30T08:57:09;9.00;99.90
8231;DHT22;4156;50.908;6.974;2024-01-30T08:59:35;8.90;99.90
8231;DHT22;4156;50.908;6.974;2024-01-30T09:02:00;9.00;99.90
8231;DHT22;4156;50.908;6.974;2024-01-30T09:04:26;9.00;99.90
8231;DHT22;4156;50.908;6.974;2024-01-30T09:06:52;9.00;99.90
8231;DHT22;4156;50.908;6.974;2024-01-30T09:09:17;9.00;99.90
8231;DHT22;4156;50.908;6.974;2024-01-30T09:11:43;9.00;99.90
8231;DHT22;4156;50.908;6.974;2024-01-30T09:14:09;9.00;99.90
8231;DHT22;4156;50.908;6.974;2024-01-30T09:16:34;9.10;99.90
8231;DHT22;4156;50.908;6.974;2024-01-30T09:19:00;9.10;99.90
8231;DHT22;4156;50.908;6.974;2024-01-30T09:21:26;9.10;99.90
8231;DHT22;4156;50.908;6.974;2024-01-30T09:23:54;9.10;99.90
8231;DHT22;4156;50.908;6.974;2024-01-30T09:26:20;9.10;99.90
8231;DHT22;4156;50.908;6.974;2024-01-30T09:28:45;9.10;99.90
8231;DHT22;4156;50.908;6.974;2024-01-30T09:31:12;9.20;99.90
8231;DHT22;4156;50.908;6.974;2024-01-30T09:33:38;9.20;99.90
8231;DHT22;4156;50.908;6.974;2024-01-30T09:36:05;9.20;99.90
8231;DHT22;4156;50.908;6.974;2024-01-30T09:38:33;9.20;99.90
8231;DHT22;4156;50.908;6.974;2024-01-30T09:41:09;9.30;99.90
8231;DHT22;4156;50.908;6.974;2024-01-30T09:43:38;9.30;99.90
8231;DHT22;4156;50.908;6.974;2024-01-30T09:46:12;9.30;99.90
8231;DHT22;4156;50.908;6.974;2024-01-30T09:48:41;9.30;99.90
8231;DHT22;4156;50.908;6.974;2024-01-30T09:51:22;9.40;99.90
8231;DHT22;4156;50.908;6.974;2024-01-30T09:53:50;9.40;99.90
8231;DHT22;4156;50.908;6.974;2024-01-30T09:56:18;9.40;99.90
8231;DHT22;4156;50.908;6.974;2024-01-30T09:59:36;9.40;99.90
8231;DHT22;4156;50.908;6.974;2024-01-30T10:02:48;9.50;99.90
8231;DHT22;4156;50.908;6.974;2024-01-30T10:09:45;9.50;99.90
8231;DHT22;4156;50.908;6.974;2024-01-30T10:12:15;9.50;99.90
8231;DHT22;4156;50.908;6.974;2024-01-30T10:14:49;9.50;99.90
8231;DHT22;4156;50.908;6.974;2024-01-30T10:17:16;9.50;99.90
8231;DHT22;4156;50.908;6.974;2024-01-30T10:19:51;9.50;99.90
8231;DHT22;4156;50.908;6.974;2024-01-30T10:22:40;9.60;99.90
8231;DHT22;4156;50.908;6.974;2024-01-30T10:25:12;9.60;99.90
8231;DHT22;4156;50.908;6.974;2024-01-30T10:27:44;9.60;99.90
8231;DHT22;4156;50.908;6.974;2024-01-30T10:31:18;9.60;99.90
8231;DHT22;4156;50.908;6.974;2024-01-30T10:33:46;9.60;99.90
8231;DHT22;4156;50.908;6.974;2024-01-30T10:36:50;9.60;99.90
8231;DHT22;4156;50.908;6.974;2024-01-30T10:39:32;9.70;99.90
8231;DHT22;4156;50.908;6.974;2024-01-30T10:42:44;9.70;99.90
8231;DHT22;4156;50.908;6.974;2024-01-30T10:45:52;9.70;99.90
8231;DHT22;4156;50.908;6.974;2024-01-30T10:48:43;9.70;99.90
8231;DHT22;4156;50.908;6.974;2024-01-30T10:51:45;9.70;99.90
8231;DHT22;4156;50.908;6.974;2024-01-30T10:54:56;9.70;99.90
8231;DHT22;4156;50.908;6.974;2024-01-30T10:57:28;9.70;99.90
8231;DHT22;4156;50.908;6.974;2024-01-30T11:00:06;9.70;99.90
8231;DHT22;4156;50.908;6.974;2024-01-30T11:03:42;9.70;99.90
8231;DHT22;4156;50.908;6.974;2024-01-30T11:07:19;9.80;99.90
8231;DHT22;4156;50.908;6.974;2024-01-30T11:10:02;9.80;99.90
8231;DHT22;4156;50.908;6.974;2024-01-30T11:13:13;9.80;99.90
8231;DHT22;4156;50.908;6.974;2024-01-30T11:16:02;9.80;99.90
8231;DHT22;4156;50.908;6.974;2024-01-30T11:19:00;9.80;99.90
8231;DHT22;4156;50.908;6.974;2024-01-30T11:21:55;9.80;99.90
8231;DHT22;4156;50.908;6.974;2024-01-30T11:24:41;9.80;99.90
8231;DHT22;4156;50.908;6.974;2024-01-30T11:27:33;9.80;99.90
8231;DHT22;4156;50.908;6.974;2024-01-30T11:33:14;9.90;99.90
8231;DHT22;4156;50.908;6.974;2024-01-30T11:36:05;9.90;99.90
8231;DHT22;4156;50.908;6.974;2024-01-30T11:38:41;9.90;99.90
8231;DHT22;4156;50.908;6.974;2024-01-30T11:41:30;9.90;99.90
8231;DHT22;4156;50.908;6.974;2024-01-30T11:44:24;10.00;99.90
8231;DHT22;4156;50.908;6.974;2024-01-30T11:47:12;10.00;99.90
8231;DHT22;4156;50.908;6.974;2024-01-30T11:50:32;10.00;99.90
8231;DHT22;4156;50.908;6.974;2024-01-30T11:53:33;10.00;99.90
8231;DHT22;4156;50.908;6.974;2024-01-30T11:56:14;10.00;99.90
8231;DHT22;4156;50.908;6.974;2024-01-30T11:58:52;10.10;99.90
8231;DHT22;4156;50.908;6.974;2024-01-30T12:01:52;10.10;99.90
8231;DHT22;4156;50.908;6.974;2024-01-30T12:04:27;10.10;99.90
8231;DHT22;4156;50.908;6.974;2024-01-30T12:07:08;10.10;99.90
8231;DHT22;4156;50.908;6.974;2024-01-30T12:09:36;10.10;99.90
8231;DHT22;4156;50.908;6.974;2024-01-30T12:12:12;10.20;99.90
8231;DHT22;4156;50.908;6.974;2024-01-30T12:14:48;10.20;99.90
8231;DHT22;4156;50.908;6.974;2024-01-30T12:17:40;10.20;99.90
8231;DHT22;4156;50.908;6.974;2024-01-30T12:20:37;10.20;99.90
8231;DHT22;4156;50.908;6.974;2024-01-30T12:23:27;10.20;99.90
8231;DHT22;4156;50.908;6.974;2024-01-30T12:25:54;10.20;99.90
8231;DHT22;4156;50.908;6.974;2024-01-30T12:28:54;10.20;99.90
8231;DHT22;4156;50.908;6.974;2024-01-30T12:31:38;10.20;99.90
8231;DHT22;4156;50.908;6.974;2024-01-30T12:34:19;10.20;99.90
8231;DHT22;4156;50.908;6.974;2024-01-30T12:37:08;10.20;99.90
8231;DHT22;4156;50.908;6.974;2024-01-30T12:39:36;10.30;99.90
8231;DHT22;4156;50.908;6.974;2024-01-30T12:42:23;10.20;99.90
8231;DHT22;4156;50.908;6.974;2024-01-30T12:45:03;10.30;99.90
8231;DHT22;4156;50.908;6.974;2024-01-30T12:47:33;10.30;99.90
8231;DHT22;4156;50.908;6.974;2024-01-30T12:50:05;10.30;99.90
8231;DHT22;4156;50.908;6.974;2024-01-30T12:52:32;10.30;99.90
8231;DHT22;4156;50.908;6.974;2024-01-30T12:55:12;11.00;99.90
8231;DHT22;4156;50.908;6.974;2024-01-30T12:57:40;10.30;99.90
8231;DHT22;4156;50.908;6.974;2024-01-30T13:00:10;10.30;99.90
8231;DHT22;4156;50.908;6.974;2024-01-30T13:02:37;10.30;99.90
8231;DHT22;4156;50.908;6.974;2024-01-30T13:05:04;10.40;99.90
8231;DHT22;4156;50.908;6.974;2024-01-30T13:07:58;10.40;99.90
8231;DHT22;4156;50.908;6.974;2024-01-30T13:11:47;10.40;99.90
8231;DHT22;4156;50.908;6.974;2024-01-30T13:15:14;10.40;99.90
8231;DHT22;4156;50.908;6.974;2024-01-30T13:18:10;10.40;99.90
8231;DHT22;4156;50.908;6.974;2024-01-30T13:20:38;10.40;99.90
8231;DHT22;4156;50.908;6.974;2024-01-30T13:23:06;10.40;99.90
8231;DHT22;4156;50.908;6.974;2024-01-30T13:25:34;10.50;99.90
8231;DHT22;4156;50.908;6.974;2024-01-30T13:28:02;10.50;99.90
8231;DHT22;4156;50.908;6.974;2024-01-30T13:30:28;10.50;99.90
8231;DHT22;4156;50.908;6.974;2024-01-30T13:32:57;10.50;99.90
8231;DHT22;4156;50.908;6.974;2024-01-30T13:35:23;10.50;99.90
8231;DHT22;4156;50.908;6.974;2024-01-30T13:37:49;10.50;99.90
8231;DHT22;4156;50.908;6.974;2024-01-30T13:40:14;10.50;99.90
8231;DHT22;4156;50.908;6.974;2024-01-30T13:42:41;10.50;99.90
8231;DHT22;4156;50.908;6.974;2024-01-30T13:45:07;10.50;99.90
8231;DHT22;4156;50.908;6.974;2024-01-30T13:47:35;10.50;99.90
8231;DHT22;4156;50.908;6.974;2024-01-30T13:50:00;10.50;99.90
8231;DHT22;4156;50.908;6.974;2024-01-30T13:52:26;10.50;99.90
8231;DHT22;4156;50.908;6.974;2024-01-30T13:54:52;10.60;99.90
8231;DHT22;4156;50.908;6.974;2024-01-30T13:57:18;10.60;99.90
8231;DHT22;4156;50.908;6.974;2024-01-30T13:59:43;10.60;99.90
8231;DHT22;4156;50.908;6.974;2024-01-30T14:02:09;10.60;99.90
8231;DHT22;4156;50.908;6.974;2024-01-30T14:04:35;10.60;99.90
8231;DHT22;4156;50.908;6.974;2024-01-30T14:07:03;10.70;99.90
8231;DHT22;4156;50.908;6.974;2024-01-30T14:09:28;10.70;99.90
8231;DHT22;4156;50.908;6.974;2024-01-30T14:11:55;10.70;99.90
8231;DHT22;4156;50.908;6.974;2024-01-30T14:14:20;10.70;99.90
8231;DHT22;4156;50.908;6.974;2024-01-30T14:16:46;10.70;99.90
8231;DHT22;4156;50.908;6.974;2024-01-30T14:19:11;10.70;99.90
8231;DHT22;4156;50.908;6.974;2024-01-30T14:21:37;10.70;99.90
8231;DHT22;4156;50.908;6.974;2024-01-30T14:24:02;10.70;99.90
8231;DHT22;4156;50.908;6.974;2024-01-30T14:26:28;10.70;99.90
8231;DHT22;4156;50.908;6.974;2024-01-30T14:28:54;10.70;99.90
8231;DHT22;4156;50.908;6.974;2024-01-30T14:31:20;10.70;99.90
8231;DHT22;4156;50.908;6.974;2024-01-30T14:33:47;10.80;99.90
8231;DHT22;4156;50.908;6.974;2024-01-30T14:36:12;10.80;99.90
8231;DHT22;4156;50.908;6.974;2024-01-30T14:38:39;10.80;99.90
8231;DHT22;4156;50.908;6.974;2024-01-30T14:41:04;10.80;99.90
8231;DHT22;4156;50.908;6.974;2024-01-30T14:43:31;10.80;99.90
8231;DHT22;4156;50.908;6.974;2024-01-30T14:45:56;10.80;99.90
8231;DHT22;4156;50.908;6.974;2024-01-30T14:48:23;10.80;99.90
8231;DHT22;4156;50.908;6.974;2024-01-30T14:50:48;10.80;99.90
8231;DHT22;4156;50.908;6.974;2024-01-30T14:53:14;10.80;99.90
8231;DHT22;4156;50.908;6.974;2024-01-30T14:55:39;10.80;99.90
8231;DHT22;4156;50.908;6.974;2024-01-30T14:58:05;10.80;99.90
8231;DHT22;4156;50.908;6.974;2024-01-30T15:00:31;10.80;99.90
8231;DHT22;4156;50.908;6.974;2024-01-30T15:02:56;10.90;99.90
8231;DHT22;4156;50.908;6.974;2024-01-30T15:05:22;10.90;99.90
8231;DHT22;4156;50.908;6.974;2024-01-30T15:07:48;10.90;99.90
8231;DHT22;4156;50.908;6.974;2024-01-30T15:10:13;10.90;99.90
8231;DHT22;4156;50.908;6.974;2024-01-30T15:12:39;10.90;99.90
8231;DHT22;4156;50.908;6.974;2024-01-30T15:15:07;11.00;99.90
8231;DHT22;4156;50.908;6.974;2024-01-30T15:17:33;11.00;99.90
8231;DHT22;4156;50.908;6.974;2024-01-30T15:19:59;11.00;99.90
8231;DHT22;4156;50.908;6.974;2024-01-30T15:22:25;11.00;99.90
8231;DHT22;4156;50.908;6.974;2024-01-30T15:24:51;11.00;99.90
8231;DHT22;4156;50.908;6.974;2024-01-30T15:27:16;11.00;99.90
8231;DHT22;4156;50.908;6.974;2024-01-30T15:29:45;11.00;99.90
8231;DHT22;4156;50.908;6.974;2024-01-30T15:32:10;11.00;99.90
8231;DHT22;4156;50.908;6.974;2024-01-30T15:34:36;11.00;99.90
8231;DHT22;4156;50.908;6.974;2024-01-30T15:37:02;11.10;99.90
8231;DHT22;4156;50.908;6.974;2024-01-30T15:39:28;11.10;99.90
8231;DHT22;4156;50.908;6.974;2024-01-30T15:41:54;11.10;99.90
8231;DHT22;4156;50.908;6.974;2024-01-30T15:44:19;11.00;99.90
8231;DHT22;4156;50.908;6.974;2024-01-30T15:46:45;11.10;99.90
8231;DHT22;4156;50.908;6.974;2024-01-30T15:49:10;11.10;99.90
8231;DHT22;4156;50.908;6.974;2024-01-30T15:51:36;11.10;99.90
8231;DHT22;4156;50.908;6.974;2024-01-30T15:54:02;11.10;99.90
8231;DHT22;4156;50.908;6.974;2024-01-30T15:56:27;11.20;99.90
8231;DHT22;4156;50.908;6.974;2024-01-30T15:58:53;11.10;99.90
8231;DHT22;4156;50.908;6.974;2024-01-30T16:01:18;11.20;99.90
8231;DHT22;4156;50.908;6.974;2024-01-30T16:03:44;11.20;99.90
8231;DHT22;4156;50.908;6.974;2024-01-30T16:06:13;11.10;99.90
8231;DHT22;4156;50.908;6.974;2024-01-30T16:08:39;11.20;99.90
8231;DHT22;4156;50.908;6.974;2024-01-30T16:11:04;11.20;99.90
8231;DHT22;4156;50.908;6.974;2024-01-30T16:13:30;11.20;99.90
8231;DHT22;4156;50.908;6.974;2024-01-30T16:15:57;11.20;99.90
8231;DHT22;4156;50.908;6.974;2024-01-30T16:18:22;11.20;99.90
8231;DHT22;4156;50.908;6.974;2024-01-30T16:20:51;11.30;99.90
8231;DHT22;4156;50.908;6.974;2024-01-30T16:23:16;11.30;99.90
8231;DHT22;4156;50.908;6.974;2024-01-30T16:25:42;11.30;99.90
8231;DHT22;4156;50.908;6.974;2024-01-30T16:28:07;11.30;99.90
8231;DHT22;4156;50.908;6.974;2024-01-30T16:30:33;11.30;99.90
8231;DHT22;4156;50.908;6.974;2024-01-30T16:32:58;11.30;99.90
8231;DHT22;4156;50.908;6.974;2024-01-30T16:35:26;11.30;99.90
8231;DHT22;4156;50.908;6.974;2024-01-30T16:37:51;11.30;99.90